Time;durP1;ratioP1;P1;durP2;ratioP2;P2;SDS_P1;SDS_P2;PMS_P1;PMS_P2;Temp;Humidity;BMP_temperature;BMP_pressure;BME280_temperature;BME280_humidity;BME280_pressure;Samples;Min_cycle;Max_cycle;Signal;HPM_P1;HPM_P2
2023/04/10 00:00:30;;;;;;;;;;;;;;;-139.84;100.00;61778.28;5026672;28;20020;-66
2023/04/10 00:02:56;;;;;;;17.33;11.30;;;;;;;-139.84;100.00;61778.28;5048045;28;20019;-67
2023/04/10 00:05:22;;;;;;;15.65;11.32;;;;;;;-139.84;100.00;61778.28;5042904;28;20117;-66
2023/04/10 00:07:48;;;;;;;16.25;10.65;;;;;;;-139.84;100.00;61778.28;5042149;28;20064;-66
2023/04/10 00:10:13;;;;;;;15.10;10.25;;;;;;;-139.84;100.00;61778.28;5042284;28;20021;-67
2023/04/10 00:12:39;;;;;;;16.63;11.03;;;;;;;-139.84;100.00;61778.28;5047221;28;20040;-67
2023/04/10 00:15:05;;;;;;;16.30;11.23;;;;;;;-139.84;100.00;61778.28;5029129;28;20038;-65
2023/04/10 00:17:30;;;;;;;14.85;10.70;;;;;;;-139.84;100.00;61778.28;5040873;28;20033;-67
2023/04/10 00:19:58;;;;;;;17.05;11.32;;;;;;;-139.84;100.00;61778.28;5045454;28;20086;-66
2023/04/10 00:22:23;;;;;;;14.55;11.07;;;;;;;-139.84;100.00;61778.28;5044831;28;20050;-66
2023/04/10 00:24:48;;;;;;;16.13;10.77;;;;;;;-139.84;100.00;61778.28;5043847;28;20025;-67
2023/04/10 00:27:14;;;;;;;17.10;10.53;;;;;;;-139.84;100.00;61778.28;5044444;28;20090;-66
2023/04/10 00:29:39;;;;;;;14.35;10.68;;;;;;;-139.84;100.00;61778.28;5044593;28;20491;-66
2023/04/10 00:32:05;;;;;;;16.88;11.50;;;;;;;-139.84;100.00;61778.28;5038559;28;20030;-66
2023/04/10 00:34:31;;;;;;;16.10;10.82;;;;;;;-139.84;100.00;61778.28;5042150;28;20021;-66
2023/04/10 00:36:59;;;;;;;15.77;10.65;;;;;;;-139.84;100.00;61778.28;5048237;28;20035;-66
2023/04/10 00:39:24;;;;;;;15.20;10.98;;;;;;;-139.84;100.00;61778.28;5042862;28;20037;-66
2023/04/10 00:41:50;;;;;;;13.52;10.10;;;;;;;-139.84;100.00;61778.28;5024603;28;20028;-66
2023/04/10 00:44:15;;;;;;;19.27;12.18;;;;;;;-139.84;100.00;61778.28;5027097;28;20528;-66
2023/04/10 00:46:41;;;;;;;15.15;11.13;;;;;;;-139.84;100.00;61778.28;5043301;28;20043;-66
2023/04/10 00:49:08;;;;;;;21.30;11.32;;;;;;;-139.84;100.00;61778.28;5023728;28;20030;-65
2023/04/10 00:51:34;;;;;;;;;;;;;;;-139.84;100.00;61778.28;5043584;28;20109;-66
2023/04/10 00:54:01;;;;;;;15.55;11.15;;;;;;;-139.84;100.00;61778.28;5032721;28;20427;-67
2023/04/10 00:56:27;;;;;;;;;;;;;;;-139.84;100.00;61778.28;5046663;28;20408;-66
2023/04/10 00:58:52;;;;;;;13.02;9.68;;;;;;;-139.84;100.00;61778.28;5044186;28;19913;-66
2023/04/10 01:01:18;;;;;;;15.18;11.15;;;;;;;-139.84;100.00;61778.28;5031045;28;20033;-67
2023/04/10 01:03:44;;;;;;;15.40;10.57;;;;;;;-139.84;100.00;61778.28;5041739;28;20063;-66
2023/04/10 01:06:22;;;;;;;17.05;11.27;;;;;;;-139.84;100.00;61778.28;5023176;28;20390;-66
2023/04/10 01:08:58;;;;;;;15.15;10.77;;;;;;;-139.84;100.00;61778.28;5029859;28;20029;-66
2023/04/10 01:11:32;;;;;;;14.90;10.23;;;;;;;-139.84;100.00;61778.28;5029485;28;20535;-66
2023/04/10 01:14:11;;;;;;;13.80;10.32;;;;;;;-139.84;100.00;61778.28;5031524;28;20360;-66
2023/04/10 01:16:50;;;;;;;17.08;10.50;;;;;;;-139.84;100.00;61778.28;5041388;28;20025;-66
2023/04/10 01:19:30;;;;;;;13.63;9.82;;;;;;;-139.84;100.00;61778.28;5042756;28;20035;-66
2023/04/10 01:21:57;;;;;;;19.08;11.45;;;;;;;-139.84;100.00;61778.28;5044217;28;20025;-68
2023/04/10 01:24:55;;;;;;;15.15;10.73;;;;;;;-139.84;100.00;61778.28;5026724;28;20888;-66
2023/04/10 01:27:45;;;;;;;15.55;10.50;;;;;;;-139.84;100.00;61778.28;5044800;28;20033;-66
2023/04/10 01:30:17;;;;;;;14.20;10.55;;;;;;;-139.84;100.00;61778.28;5040358;28;20089;-66
2023/04/10 01:32:43;;;;;;;16.75;10.93;;;;;;;-139.84;100.00;61778.28;5037915;28;20029;-67
2023/04/10 01:35:11;;;;;;;20.27;10.63;;;;;;;-139.84;100.00;61778.28;5045671;28;20032;-66
2023/04/10 01:37:42;;;;;;;13.40;10.45;;;;;;;-139.84;100.00;61778.28;5041062;28;20049;-66
2023/04/10 01:40:13;;;;;;;13.77;10.45;;;;;;;-139.84;100.00;61778.28;5044351;28;20104;-66
2023/04/10 01:42:59;;;;;;;15.88;11.05;;;;;;;-139.84;100.00;61778.28;5039800;28;20032;-66
2023/04/10 01:45:28;;;;;;;16.55;11.32;;;;;;;-139.84;100.00;61778.28;5044842;28;20511;-67
2023/04/10 01:47:54;;;;;;;15.18;10.63;;;;;;;-139.84;100.00;61778.28;5043039;28;20037;-67
2023/04/10 01:50:23;;;;;;;15.30;11.07;;;;;;;-139.84;100.00;61778.28;5044036;28;20033;-66
2023/04/10 01:52:50;;;;;;;13.55;10.38;;;;;;;-139.84;100.00;61778.28;5042622;28;20052;-66
2023/04/10 01:55:16;;;;;;;16.52;10.82;;;;;;;-139.84;100.00;61778.28;5029662;28;20108;-66
2023/04/10 01:57:41;;;;;;;17.23;10.73;;;;;;;-139.84;100.00;61778.28;5041192;28;20129;-66
2023/04/10 02:00:07;;;;;;;14.68;10.60;;;;;;;-139.84;100.00;61778.28;5044466;28;20025;-66
2023/04/10 02:02:34;;;;;;;15.73;9.98;;;;;;;-139.84;100.00;61778.28;5043764;28;20049;-66
2023/04/10 02:05:00;;;;;;;14.70;9.90;;;;;;;-139.84;100.00;61778.28;5029417;28;20037;-66
2023/04/10 02:07:38;;;;;;;15.43;10.27;;;;;;;-139.84;100.00;61778.28;5040787;28;20044;-66
2023/04/10 02:10:20;;;;;;;15.90;9.88;;;;;;;-139.84;100.00;61778.28;5043350;28;20037;-66
2023/04/10 02:12:59;;;;;;;13.93;9.02;;;;;;;-139.84;100.00;61778.28;5034116;28;20031;-67
2023/04/10 02:15:29;;;;;;;14.38;10.00;;;;;;;-139.84;100.00;61778.28;5037652;28;20072;-71
2023/04/10 02:17:57;;;;;;;12.45;9.23;;;;;;;-139.84;100.00;61778.28;5042470;28;20502;-74
2023/04/10 02:20:24;;;;;;;14.70;9.07;;;;;;;-139.84;100.00;61778.28;5042144;28;20156;-72
2023/04/10 02:22:49;;;;;;;13.73;9.73;;;;;;;-139.84;100.00;61778.28;5042523;28;20104;-72
2023/04/10 02:25:15;;;;;;;15.20;9.88;;;;;;;-139.84;100.00;61778.28;5042050;28;20040;-71
2023/04/10 02:27:41;;;;;;;14.00;8.77;;;;;;;-139.84;100.00;61778.28;5041996;28;20025;-73
2023/04/10 02:30:07;;;;;;;13.30;8.75;;;;;;;-139.84;100.00;61778.28;5043748;28;20028;-73
2023/04/10 02:32:32;;;;;;;12.43;8.98;;;;;;;-139.84;100.00;61778.28;5046263;28;20094;-72
2023/04/10 02:34:58;;;;;;;19.92;10.23;;;;;;;-139.84;100.00;61778.28;5046455;28;20037;-72
2023/04/10 02:37:24;;;;;;;11.93;9.02;;;;;;;-139.84;100.00;61778.28;5041734;28;20104;-72
2023/04/10 02:39:52;;;;;;;12.07;9.10;;;;;;;-139.84;100.00;61778.28;5044007;28;20096;-73
2023/04/10 02:42:17;;;;;;;10.13;8.60;;;;;;;-139.84;100.00;61778.28;5040958;28;20119;-73
2023/04/10 02:44:43;;;;;;;14.77;9.02;;;;;;;-139.84;100.00;61778.28;5043972;28;20113;-72
2023/04/10 02:47:09;;;;;;;12.38;8.05;;;;;;;-139.84;100.00;61778.28;5044290;28;20526;-72
2023/04/10 02:49:35;;;;;;;11.68;8.10;;;;;;;-139.84;100.00;61778.28;5030098;28;20464;-72
2023/04/10 02:52:01;;;;;;;15.68;8.70;;;;;;;-139.84;100.00;61778.28;5041843;28;20033;-73
2023/04/10 02:54:26;;;;;;;9.77;8.37;;;;;;;-139.84;100.00;61778.28;5043545;28;20049;-73
2023/04/10 02:56:52;;;;;;;12.18;9.00;;;;;;;-139.84;100.00;61778.28;5041734;28;20037;-73
2023/04/10 02:59:18;;;;;;;11.10;8.02;;;;;;;-139.84;100.00;61778.28;5041812;28;20032;-73
2023/04/10 03:01:46;;;;;;;11.48;7.65;;;;;;;-139.84;100.00;61778.28;5044171;28;20120;-73
2023/04/10 03:04:12;;;;;;;11.55;7.88;;;;;;;-139.84;100.00;61778.28;5046360;28;20045;-73
2023/04/10 03:06:37;;;;;;;10.82;8.18;;;;;;;-139.84;100.00;61778.28;5048828;28;20314;-73
2023/04/10 03:09:03;;;;;;;11.40;8.27;;;;;;;-139.84;100.00;61778.28;5046940;28;20036;-73
2023/04/10 03:11:29;;;;;;;9.73;7.90;;;;;;;-139.84;100.00;61778.28;5042912;28;20083;-73
2023/04/10 03:13:57;;;;;;;11.98;8.45;;;;;;;-139.84;100.00;61778.28;5043666;28;20029;-74
2023/04/10 03:16:22;;;;;;;10.38;7.90;;;;;;;-139.84;100.00;61778.28;5044689;28;20029;-73
2023/04/10 03:18:48;;;;;;;14.35;8.25;;;;;;;-139.84;100.00;61778.28;5044677;28;20515;-73
2023/04/10 03:21:13;;;;;;;10.00;8.20;;;;;;;-139.84;100.00;61778.28;5029529;28;20017;-72
2023/04/10 03:23:39;;;;;;;11.30;8.40;;;;;;;-139.84;100.00;61778.28;5047559;28;20063;-72
2023/04/10 03:26:04;;;;;;;11.13;8.07;;;;;;;-139.84;100.00;61778.28;5036563;28;20119;-73
2023/04/10 03:28:31;;;;;;;10.23;7.75;;;;;;;-139.84;100.00;61778.28;5047207;28;20429;-72
2023/04/10 03:30:57;;;;;;;10.13;7.70;;;;;;;-139.84;100.00;61778.28;5045589;28;20102;-74
2023/04/10 03:33:22;;;;;;;11.05;7.90;;;;;;;-139.84;100.00;61778.28;5043127;28;20041;-72
2023/04/10 03:35:48;;;;;;;10.68;7.32;;;;;;;-139.84;100.00;61778.28;5050395;28;20242;-71
2023/04/10 03:38:13;;;;;;;9.18;7.43;;;;;;;-139.84;100.00;61778.28;5043734;28;20138;-72
2023/04/10 03:40:39;;;;;;;11.57;8.50;;;;;;;-139.84;100.00;61778.28;5047569;28;20017;-72
2023/04/10 03:43:04;;;;;;;11.90;7.33;;;;;;;-139.84;100.00;61778.28;5028641;28;20032;-72
2023/04/10 03:45:30;;;;;;;7.75;6.90;;;;;;;-139.84;100.00;61778.28;5046286;28;20178;-73
2023/04/10 03:47:55;;;;;;;11.07;8.38;;;;;;;-139.84;100.00;61778.28;5045012;28;20408;-73
2023/04/10 03:50:21;;;;;;;8.68;6.90;;;;;;;-139.84;100.00;61778.28;5026269;28;20049;-73
2023/04/10 03:52:48;;;;;;;11.70;7.60;;;;;;;-139.84;100.00;61778.28;5034804;28;20075;-72
2023/04/10 03:55:17;;;;;;;;;;;;;;;-139.84;100.00;61778.28;5043142;28;20025;-73
2023/04/10 03:57:44;;;;;;;10.18;7.45;;;;;;;-139.84;100.00;61778.28;5043957;28;19920;-72
2023/04/10 04:00:10;;;;;;;10.55;8.07;;;;;;;-139.84;100.00;61778.28;5045279;28;20029;-73
2023/04/10 04:02:35;;;;;;;10.67;7.93;;;;;;;-139.84;100.00;61778.28;5030265;28;20116;-73
2023/04/10 04:05:01;;;;;;;10.88;7.93;;;;;;;-139.84;100.00;61778.28;5046159;28;20108;-72
2023/04/10 04:07:26;;;;;;;10.13;7.70;;;;;;;-139.84;100.00;61778.28;5026223;28;20062;-72
2023/04/10 04:09:52;;;;;;;9.10;8.02;;;;;;;-139.84;100.00;61778.28;5045563;28;20653;-72
2023/04/10 04:12:17;;;;;;;10.70;8.18;;;;;;;-139.84;100.00;61778.28;5044744;28;20033;-74
2023/04/10 04:14:44;;;;;;;10.88;8.20;;;;;;;-139.84;100.00;61778.28;5046508;28;20025;-73
2023/04/10 04:17:09;;;;;;;9.85;7.68;;;;;;;-139.84;100.00;61778.28;5027064;28;20021;-73
2023/04/10 04:19:34;;;;;;;12.53;8.53;;;;;;;-139.84;100.00;61778.28;5045037;28;20037;-73
2023/04/10 04:22:00;;;;;;;11.68;8.45;;;;;;;-139.84;100.00;61778.28;5045965;28;20048;-72
2023/04/10 04:24:26;;;;;;;12.35;8.25;;;;;;;-139.84;100.00;61778.28;5045557;28;20037;-73
2023/04/10 04:26:52;;;;;;;10.15;8.00;;;;;;;-139.84;100.00;61778.28;5042084;28;20033;-72
2023/04/10 04:29:17;;;;;;;11.05;8.75;;;;;;;-139.84;100.00;61778.28;5046207;28;20116;-72
2023/04/10 04:31:43;;;;;;;12.25;9.25;;;;;;;-139.84;100.00;61778.28;5047005;28;20053;-72
2023/04/10 04:34:08;;;;;;;10.95;8.10;;;;;;;-139.84;100.00;61778.28;5045285;28;20120;-73
2023/04/10 04:36:33;;;;;;;10.90;8.55;;;;;;;-139.84;100.00;61778.28;5045508;28;20079;-72
2023/04/10 04:39:01;;;;;;;13.93;8.77;;;;;;;-139.84;100.00;61778.28;5038832;28;20040;-72
2023/04/10 04:41:29;;;;;;;10.52;7.85;;;;;;;-139.84;100.00;61778.28;5034768;28;20021;-72
2023/04/10 04:43:54;;;;;;;10.50;7.38;;;;;;;-139.84;100.00;61778.28;5043091;28;20037;-72
2023/04/10 04:46:21;;;;;;;10.15;8.18;;;;;;;-139.84;100.00;61778.28;5036165;28;20028;-73
2023/04/10 04:48:46;;;;;;;12.57;8.20;;;;;;;-139.84;100.00;61778.28;5046606;28;20020;-72
2023/04/10 04:51:12;;;;;;;12.23;8.27;;;;;;;-139.84;100.00;61778.28;5045754;28;20090;-72
2023/04/10 04:53:37;;;;;;;11.48;7.68;;;;;;;-139.84;100.00;61778.28;5043436;28;20389;-72
2023/04/10 04:56:02;;;;;;;12.23;8.05;;;;;;;-139.84;100.00;61778.28;5031704;28;20033;-71
2023/04/10 04:58:28;;;;;;;13.60;8.68;;;;;;;-139.84;100.00;61778.28;5043114;28;20423;-73
2023/04/10 05:00:53;;;;;;;8.18;7.22;;;;;;;-139.84;100.00;61778.28;5032035;28;20017;-72
2023/04/10 05:03:19;;;;;;;10.52;8.13;;;;;;;-139.84;100.00;61778.28;5043926;28;20071;-73
2023/04/10 05:05:44;;;;;;;10.45;7.85;;;;;;;-139.84;100.00;61778.28;5030064;28;20025;-73
2023/04/10 05:08:10;;;;;;;12.53;9.00;;;;;;;-139.84;100.00;61778.28;5044381;28;20564;-73
2023/04/10 05:10:35;;;;;;;10.70;8.25;;;;;;;-139.84;100.00;61778.28;5025092;28;20033;-73
2023/04/10 05:13:02;;;;;;;12.27;8.37;;;;;;;-139.84;100.00;61778.28;5046070;28;20052;-72
2023/04/10 05:15:27;;;;;;;11.02;8.25;;;;;;;-139.84;100.00;61778.28;5043271;28;20125;-72
2023/04/10 05:17:53;;;;;;;10.30;8.02;;;;;;;-139.84;100.00;61778.28;5044857;28;22129;-73
2023/04/10 05:20:20;;;;;;;10.88;8.38;;;;;;;-139.84;100.00;61778.28;5046190;28;20009;-72
2023/04/10 05:22:45;;;;;;;;;;;;;;;-139.84;100.00;61778.28;5041894;28;20045;-73
2023/04/10 05:25:11;;;;;;;10.38;8.27;;;;;;;-139.84;100.00;61778.28;5041801;28;19959;-75
2023/04/10 05:27:36;;;;;;;10.40;8.20;;;;;;;-139.84;100.00;61778.28;5042245;28;20033;-74
2023/04/10 05:30:02;;;;;;;10.35;8.05;;;;;;;-139.84;100.00;61778.28;5039138;28;20115;-73
2023/04/10 05:32:28;;;;;;;11.27;8.95;;;;;;;-139.84;100.00;61778.28;5045820;28;20082;-73
2023/04/10 05:34:53;;;;;;;13.18;8.43;;;;;;;-139.84;100.00;61778.28;5046032;28;20067;-73
2023/04/10 05:37:19;;;;;;;11.10;8.73;;;;;;;-139.84;100.00;61778.28;5043972;28;20577;-73
2023/04/10 05:39:44;;;;;;;10.60;7.80;;;;;;;-139.84;100.00;61778.28;5028877;28;20044;-73
2023/04/10 05:42:10;;;;;;;10.82;8.38;;;;;;;-139.84;100.00;61778.28;5045327;28;20389;-73
2023/04/10 05:44:36;;;;;;;10.23;7.88;;;;;;;-139.84;100.00;61778.28;5043078;28;20104;-74
2023/04/10 05:47:01;;;;;;;11.63;8.82;;;;;;;-139.84;100.00;61778.28;5045528;28;20025;-73
2023/04/10 05:49:26;;;;;;;9.85;7.85;;;;;;;-139.84;100.00;61778.28;5029451;28;20029;-73
2023/04/10 05:51:52;;;;;;;12.60;8.63;;;;;;;-139.84;100.00;61778.28;5028299;28;20033;-72
2023/04/10 05:54:18;;;;;;;10.82;8.73;;;;;;;-139.84;100.00;61778.28;5025949;28;20117;-73
2023/04/10 05:56:43;;;;;;;10.50;7.85;;;;;;;-139.84;100.00;61778.28;5040445;28;20025;-73
2023/04/10 05:59:09;;;;;;;10.35;8.43;;;;;;;-139.84;100.00;61778.28;5045895;28;20090;-72
2023/04/10 06:01:34;;;;;;;10.43;8.20;;;;;;;-139.84;100.00;61778.28;5043964;28;20075;-73
2023/04/10 06:04:01;;;;;;;10.90;8.18;;;;;;;-139.84;100.00;61778.28;5046216;28;20481;-73
2023/04/10 06:06:28;;;;;;;11.45;7.80;;;;;;;-139.84;100.00;61778.28;5042025;28;20370;-73
2023/04/10 06:08:53;;;;;;;9.13;7.55;;;;;;;-139.84;100.00;61778.28;5029702;28;20029;-73
2023/04/10 06:11:19;;;;;;;10.68;7.55;;;;;;;-139.84;100.00;61778.28;5041094;28;20056;-73
2023/04/10 06:13:45;;;;;;;15.20;8.10;;;;;;;-139.84;100.00;61778.28;5040620;28;20033;-73
2023/04/10 06:16:10;;;;;;;10.70;8.00;;;;;;;-139.84;100.00;61778.28;5044292;28;20025;-73
2023/04/10 06:18:37;;;;;;;11.85;8.07;;;;;;;-139.84;100.00;61778.28;5042104;28;20143;-72
2023/04/10 06:21:02;;;;;;;11.00;7.90;;;;;;;-139.84;100.00;61778.28;5042209;28;20026;-72
2023/04/10 06:23:27;;;;;;;11.63;8.27;;;;;;;-139.84;100.00;61778.28;5042197;28;20331;-73
2023/04/10 06:25:55;;;;;;;11.60;8.10;;;;;;;-139.84;100.00;61778.28;5041487;28;20079;-73
2023/04/10 06:28:21;;;;;;;9.93;7.90;;;;;;;-139.84;100.00;61778.28;5041224;28;20457;-73
2023/04/10 06:30:46;;;;;;;13.13;8.15;;;;;;;-139.84;100.00;61778.28;5040014;28;20082;-73
2023/04/10 06:33:11;;;;;;;11.93;9.00;;;;;;;-139.84;100.00;61778.28;5045237;28;20025;-73
2023/04/10 06:35:37;;;;;;;11.80;8.50;;;;;;;-139.84;100.00;61778.28;5041539;28;20033;-73
2023/04/10 06:38:03;;;;;;;11.57;8.23;;;;;;;-139.84;100.00;61778.28;5038623;28;20032;-73
2023/04/10 06:40:29;;;;;;;10.80;8.55;;;;;;;-139.84;100.00;61778.28;5024978;28;20460;-73
2023/04/10 06:42:55;;;;;;;12.10;8.57;;;;;;;-139.84;100.00;61778.28;5043700;28;20082;-73
2023/04/10 06:45:20;;;;;;;10.00;8.30;;;;;;;-139.84;100.00;61778.28;5041362;28;20485;-72
2023/04/10 06:47:46;;;;;;;16.40;8.85;;;;;;;-139.84;100.00;61778.28;5037952;28;20036;-73
2023/04/10 06:50:11;;;;;;;11.45;8.88;;;;;;;-139.84;100.00;61778.28;5043773;28;20025;-73
2023/04/10 06:52:37;;;;;;;12.03;8.80;;;;;;;-139.84;100.00;61778.28;5040595;28;20339;-72
2023/04/10 06:55:02;;;;;;;11.95;8.73;;;;;;;-139.84;100.00;61778.28;5036725;28;20021;-74
2023/04/10 06:57:28;;;;;;;12.13;8.85;;;;;;;-139.84;100.00;61778.28;5042224;28;20107;-73
2023/04/10 06:59:53;;;;;;;11.38;8.18;;;;;;;-139.84;100.00;61778.28;5040301;28;20028;-74
2023/04/10 07:02:19;;;;;;;10.52;7.88;;;;;;;-139.84;100.00;61778.28;5042194;28;20112;-72
2023/04/10 07:04:44;;;;;;;11.85;8.65;;;;;;;-139.84;100.00;61778.28;5032424;28;20484;-73
2023/04/10 07:07:12;;;;;;;10.68;8.20;;;;;;;-139.84;100.00;61778.28;5041848;28;20069;-72
2023/04/10 07:09:38;;;;;;;11.13;8.73;;;;;;;-139.84;100.00;61778.28;5027269;28;20025;-72
2023/04/10 07:12:03;;;;;;;11.95;7.90;;;;;;;-139.84;100.00;61778.28;5042446;28;20400;-73
2023/04/10 07:14:28;;;;;;;12.85;8.27;;;;;;;-139.84;100.00;61778.28;5039879;28;20099;-73
2023/04/10 07:16:54;;;;;;;9.80;7.70;;;;;;;-139.84;100.00;61778.28;5042900;28;20441;-72
2023/04/10 07:19:19;;;;;;;8.95;7.68;;;;;;;-139.84;100.00;61778.28;5042193;28;20032;-73
2023/04/10 07:21:48;;;;;;;13.97;9.10;;;;;;;-139.84;100.00;61778.28;5042280;28;20484;-73
2023/04/10 07:24:15;;;;;;;10.43;8.10;;;;;;;-139.84;100.00;61778.28;5031893;28;20020;-73
2023/04/10 07:26:40;;;;;;;10.43;8.43;;;;;;;-139.84;100.00;61778.28;5042381;28;20029;-73
2023/04/10 07:29:06;;;;;;;10.33;8.30;;;;;;;-139.84;100.00;61778.28;5042989;28;20060;-73
2023/04/10 07:31:31;;;;;;;10.25;7.78;;;;;;;-139.84;100.00;61778.28;5041617;28;20330;-73
2023/04/10 07:33:57;;;;;;;12.80;8.40;;;;;;;-139.84;100.00;61778.28;5044924;28;20043;-73
2023/04/10 07:36:22;;;;;;;10.47;7.67;;;;;;;-139.84;100.00;61778.28;5039005;28;20388;-73
2023/04/10 07:38:47;;;;;;;10.40;8.13;;;;;;;-139.84;100.00;61778.28;5044239;28;20033;-73
2023/04/10 07:41:13;;;;;;;10.57;8.52;;;;;;;-139.84;100.00;61778.28;5027878;28;20017;-73
2023/04/10 07:43:38;;;;;;;12.90;8.38;;;;;;;-139.84;100.00;61778.28;5042046;28;20060;-73
2023/04/10 07:46:04;;;;;;;11.87;7.97;;;;;;;-139.84;100.00;61778.28;5028625;28;20082;-74
2023/04/10 07:48:29;;;;;;;13.57;7.93;;;;;;;-139.84;100.00;61778.28;5045797;28;20523;-73
2023/04/10 07:50:55;;;;;;;13.07;9.07;;;;;;;-139.84;100.00;61778.28;5044342;28;20079;-72
2023/04/10 07:53:20;;;;;;;11.27;8.20;;;;;;;-139.84;100.00;61778.28;5045721;28;20031;-71
2023/04/10 07:55:47;;;;;;;9.88;8.00;;;;;;;-139.84;100.00;61778.28;5043952;28;20033;-72
2023/04/10 07:58:13;;;;;;;9.32;7.88;;;;;;;-139.84;100.00;61778.28;5043953;28;20057;-72
2023/04/10 08:00:39;;;;;;;10.60;8.50;;;;;;;-139.84;100.00;61778.28;5048127;28;20059;-72
2023/04/10 08:03:05;;;;;;;9.43;7.80;;;;;;;-139.84;100.00;61778.28;5044766;28;20372;-72
2023/04/10 08:05:30;;;;;;;13.83;8.60;;;;;;;-139.84;100.00;61778.28;5046754;28;20417;-72
2023/04/10 08:07:56;;;;;;;10.52;8.25;;;;;;;-139.84;100.00;61778.28;5034472;28;20281;-72
2023/04/10 08:10:21;;;;;;;9.00;7.93;;;;;;;-139.84;100.00;61778.28;5043947;28;20041;-72
2023/04/10 08:12:47;;;;;;;9.32;8.02;;;;;;;-139.84;100.00;61778.28;5029985;28;20025;-71
2023/04/10 08:15:12;;;;;;;12.02;8.68;;;;;;;-139.84;100.00;61778.28;5044506;28;20017;-71
2023/04/10 08:17:37;;;;;;;9.77;7.70;;;;;;;-139.84;100.00;61778.28;5043664;28;20054;-72
2023/04/10 08:20:03;;;;;;;10.17;7.57;;;;;;;-139.84;100.00;61778.28;5044559;28;20025;-72
2023/04/10 08:22:29;;;;;;;13.13;7.43;;;;;;;-139.84;100.00;61778.28;5046941;28;20535;-72
2023/04/10 08:24:55;;;;;;;10.15;7.57;;;;;;;-139.84;100.00;61778.28;5042512;28;20361;-71
2023/04/10 08:27:20;;;;;;;12.53;8.70;;;;;;;-139.84;100.00;61778.28;5048385;28;20388;-71
2023/04/10 08:29:45;;;;;;;9.67;7.27;;;;;;;-139.84;100.00;61778.28;5042302;28;20098;-72
2023/04/10 08:32:11;;;;;;;8.80;7.20;;;;;;;-139.84;100.00;61778.28;5044264;28;20547;-72
2023/04/10 08:34:36;;;;;;;9.50;7.43;;;;;;;-139.84;100.00;61778.28;5047720;28;20109;-72
2023/04/10 08:37:06;;;;;;;9.50;7.70;;;;;;;-139.84;100.00;61778.28;5045725;28;20457;-72
2023/04/10 08:39:35;;;;;;;12.50;8.20;;;;;;;-139.84;100.00;61778.28;5046144;28;20497;-71
2023/04/10 08:42:01;;;;;;;10.30;7.30;;;;;;;-139.84;100.00;61778.28;5046719;28;20615;-72
2023/04/10 08:44:27;;;;;;;9.73;7.93;;;;;;;-139.84;100.00;61778.28;5044350;28;20110;-72
2023/04/10 08:46:57;;;;;;;12.65;7.63;;;;;;;-139.84;100.00;61778.28;5045298;28;20060;-71
2023/04/10 08:49:43;;;;;;;11.13;8.27;;;;;;;-139.84;100.00;61778.28;5048274;28;20496;-72
2023/04/10 08:52:19;;;;;;;10.25;7.75;;;;;;;-139.84;100.00;61778.28;5031343;28;20029;-72
2023/04/10 08:54:49;;;;;;;10.23;8.38;;;;;;;-139.84;100.00;61778.28;5042633;28;20048;-72
2023/04/10 08:57:19;;;;;;;9.90;7.47;;;;;;;-139.84;100.00;61778.28;5043683;28;20031;-71
2023/04/10 08:59:46;;;;;;;9.95;7.68;;;;;;;-139.84;100.00;61778.28;5048330;28;20028;-72
2023/04/10 09:02:12;;;;;;;11.32;7.85;;;;;;;-139.84;100.00;61778.28;5042603;28;20082;-72
2023/04/10 09:04:38;;;;;;;9.55;7.75;;;;;;;-139.84;100.00;61778.28;5033211;28;20052;-72
2023/04/10 09:07:03;;;;;;;10.03;7.50;;;;;;;-139.84;100.00;61778.28;5048386;28;20032;-72
2023/04/10 09:09:31;;;;;;;10.47;7.60;;;;;;;-139.84;100.00;61778.28;5045137;28;20588;-72
2023/04/10 09:12:02;;;;;;;14.68;8.43;;;;;;;-139.84;100.00;61778.28;5044858;28;20036;-72
2023/04/10 09:14:30;;;;;;;9.40;7.82;;;;;;;-139.84;100.00;61778.28;5041453;28;20071;-72
2023/04/10 09:17:15;;;;;;;12.15;8.45;;;;;;;-139.84;100.00;61778.28;5041015;28;20108;-72
2023/04/10 09:19:40;;;;;;;10.02;7.93;;;;;;;-139.84;100.00;61778.28;5041948;28;20033;-71
2023/04/10 09:22:06;;;;;;;10.27;7.50;;;;;;;-139.84;100.00;61778.28;5044001;28;20031;-71
2023/04/10 09:24:38;;;;;;;10.63;8.07;;;;;;;-139.84;100.00;61778.28;5037280;28;20047;-71
2023/04/10 09:27:05;;;;;;;11.40;8.52;;;;;;;-139.84;100.00;61778.28;5047789;28;20028;-71
2023/04/10 09:29:44;;;;;;;14.07;8.02;;;;;;;-139.84;100.00;61778.28;5047710;28;20025;-72
2023/04/10 09:32:12;;;;;;;9.93;7.97;;;;;;;-139.84;100.00;61778.28;5041057;28;20401;-72
2023/04/10 09:35:05;;;;;;;9.00;7.55;;;;;;;-139.84;100.00;61778.28;5043788;28;20032;-72
2023/04/10 09:37:35;;;;;;;9.85;7.40;;;;;;;-139.84;100.00;61778.28;5042945;28;20033;-72
2023/04/10 09:40:00;;;;;;;10.68;8.05;;;;;;;-139.84;100.00;61778.28;5042028;28;20055;-73
2023/04/10 09:42:30;;;;;;;13.50;7.40;;;;;;;-139.84;100.00;61778.28;5043846;28;20032;-72
2023/04/10 09:44:55;;;;;;;10.85;7.13;;;;;;;-139.84;100.00;61778.28;5042398;28;20063;-73
2023/04/10 09:47:21;;;;;;;12.67;7.53;;;;;;;-139.84;100.00;61778.28;5028676;28;20025;-73
2023/04/10 09:49:59;;;;;;;8.13;6.28;;;;;;;-139.84;100.00;61778.28;5036772;28;20049;-73
2023/04/10 09:52:30;;;;;;;10.93;7.57;;;;;;;-139.84;100.00;61778.28;5045884;28;20033;-72
2023/04/10 09:54:58;;;;;;;11.50;7.07;;;;;;;-139.84;100.00;61778.28;5039298;28;20037;-72
2023/04/10 09:57:25;;;;;;;9.50;6.55;;;;;;;-139.84;100.00;61778.28;5042106;28;20031;-73
2023/04/10 09:59:56;;;;;;;9.13;7.10;;;;;;;-139.84;100.00;61778.28;5040561;28;20070;-72
2023/04/10 10:02:24;;;;;;;8.82;6.78;;;;;;;-139.84;100.00;61778.28;5042544;28;20500;-73
2023/04/10 10:04:51;;;;;;;7.82;6.80;;;;;;;-139.84;100.00;61778.28;5044294;28;20037;-71
2023/04/10 10:07:19;;;;;;;14.23;7.30;;;;;;;-139.84;100.00;61778.28;5042141;28;20552;-74
2023/04/10 10:09:46;;;;;;;12.15;6.85;;;;;;;-139.84;100.00;61778.28;5045325;28;20029;-71
2023/04/10 10:12:15;;;;;;;8.43;6.75;;;;;;;-139.84;100.00;61778.28;5042495;28;20040;-72
2023/04/10 10:14:56;;;;;;;10.10;6.82;;;;;;;-139.84;100.00;61778.28;5048005;28;20031;-72
2023/04/10 10:17:26;;;;;;;8.20;6.78;;;;;;;-139.84;100.00;61778.28;5042272;28;20045;-73
2023/04/10 10:20:12;;;;;;;9.15;6.82;;;;;;;-139.84;100.00;61778.28;5042169;28;20104;-72
2023/04/10 10:22:37;;;;;;;7.40;6.47;;;;;;;-139.84;100.00;61778.28;5046246;28;20456;-75
2023/04/10 10:25:03;;;;;;;13.17;7.37;;;;;;;-139.84;100.00;61778.28;5023719;28;20029;-72
2023/04/10 10:27:33;;;;;;;7.53;6.53;;;;;;;-139.84;100.00;61778.28;5041046;28;20063;-72
2023/04/10 10:29:59;;;;;;;8.93;6.65;;;;;;;-139.84;100.00;61778.28;5044299;28;20090;-72
2023/04/10 10:32:26;;;;;;;7.32;6.07;;;;;;;-139.84;100.00;61778.28;5040729;28;20029;-72
2023/04/10 10:34:52;;;;;;;9.02;6.50;;;;;;;-139.84;100.00;61778.28;5042803;28;20067;-73
2023/04/10 10:37:21;;;;;;;6.82;6.07;;;;;;;-139.84;100.00;61778.28;5037793;28;20037;-72
2023/04/10 10:39:58;;;;;;;7.18;6.45;;;;;;;-139.84;100.00;61778.28;5046121;28;20055;-72
2023/04/10 10:42:42;;;;;;;11.73;7.05;;;;;;;-139.84;100.00;61778.28;5042284;28;20107;-72
2023/04/10 10:45:11;;;;;;;8.00;6.80;;;;;;;-139.84;100.00;61778.28;5044689;28;20067;-72
2023/04/10 10:47:49;;;;;;;7.72;6.20;;;;;;;-139.84;100.00;61778.28;5039814;28;20025;-72
2023/04/10 10:50:14;;;;;;;10.00;6.45;;;;;;;-139.84;100.00;61778.28;5037387;28;20036;-73
2023/04/10 10:52:56;;;;;;;8.47;6.80;;;;;;;-139.84;100.00;61778.28;5045586;28;20021;-72
2023/04/10 10:55:21;;;;;;;7.50;6.63;;;;;;;-139.84;100.00;61778.28;5041077;28;20107;-73
2023/04/10 10:57:48;;;;;;;7.50;6.33;;;;;;;-139.84;100.00;61778.28;5044223;28;20523;-72
2023/04/10 11:00:21;;;;;;;7.28;6.40;;;;;;;-139.84;100.00;61778.28;5046017;28;20035;-71
2023/04/10 11:03:11;;;;;;;7.97;6.05;;;;;;;-139.84;100.00;61778.28;5032734;28;20041;-72